sensor_id;sensor_type;location;lat;lon;timestamp;pressure;altitude;pressure_sealevel;temperature;humidity
11415;BME280;5763;42.714;23.244;2022-08-03T00:01:22;94619.13;;;21.80;53.81
11415;BME280;5763;42.714;23.244;2022-08-03T00:03:49;94612.31;;;21.75;53.96
11415;BME280;5763;42.714;23.244;2022-08-03T00:06:15;94616.09;;;21.78;53.78
11415;BME280;5763;42.714;23.244;2022-08-03T00:08:42;94609.94;;;21.85;53.44
11415;BME280;5763;42.714;23.244;2022-08-03T00:11:10;94607.31;;;21.74;54.05
11415;BME280;5763;42.714;23.244;2022-08-03T00:13:37;94612.88;;;21.74;53.61
11415;BME280;5763;42.714;23.244;2022-08-03T00:16:04;94614.06;;;21.78;53.55
11415;BME280;5763;42.714;23.244;2022-08-03T00:18:31;94613.09;;;21.76;53.62
11415;BME280;5763;42.714;23.244;2022-08-03T00:20:58;94605.81;;;21.67;54.02
11415;BME280;5763;42.714;23.244;2022-08-03T00:23:24;94603.84;;;21.62;54.90
11415;BME280;5763;42.714;23.244;2022-08-03T00:25:51;94610.16;;;21.63;55.22
11415;BME280;5763;42.714;23.244;2022-08-03T00:28:20;94613.19;;;21.65;55.28
11415;BME280;5763;42.714;23.244;2022-08-03T00:30:46;94623.53;;;21.70;55.40
11415;BME280;5763;42.714;23.244;2022-08-03T00:33:14;94619.69;;;21.73;55.43
11415;BME280;5763;42.714;23.244;2022-08-03T00:35:41;94618.75;;;21.65;55.48
11415;BME280;5763;42.714;23.244;2022-08-03T00:38:07;94609.72;;;21.59;55.40
11415;BME280;5763;42.714;23.244;2022-08-03T00:40:34;94607.91;;;21.61;55.19
11415;BME280;5763;42.714;23.244;2022-08-03T00:43:03;94610.22;;;21.57;55.77
11415;BME280;5763;42.714;23.244;2022-08-03T00:45:32;94604.66;;;21.57;56.05
11415;BME280;5763;42.714;23.244;2022-08-03T00:48:00;94607.44;;;21.57;56.44
11415;BME280;5763;42.714;23.244;2022-08-03T00:50:29;94605.47;;;21.52;56.67
11415;BME280;5763;42.714;23.244;2022-08-03T00:52:58;94603.25;;;21.45;56.88
11415;BME280;5763;42.714;23.244;2022-08-03T00:55:25;94600.56;;;21.40;57.26
11415;BME280;5763;42.714;23.244;2022-08-03T00:57:52;94606.47;;;21.31;57.39
11415;BME280;5763;42.714;23.244;2022-08-03T01:00:20;94610.75;;;21.32;57.36
11415;BME280;5763;42.714;23.244;2022-08-03T01:02:49;94601.94;;;21.28;57.24
11415;BME280;5763;42.714;23.244;2022-08-03T01:05:16;94611.56;;;21.27;57.89
11415;BME280;5763;42.714;23.244;2022-08-03T01:07:54;94611.00;;;21.34;58.05
11415;BME280;5763;42.714;23.244;2022-08-03T01:10:34;94609.72;;;21.35;58.04
11415;BME280;5763;42.714;23.244;2022-08-03T01:13:18;94607.75;;;21.30;58.17
11415;BME280;5763;42.714;23.244;2022-08-03T01:15:52;94603.69;;;21.31;58.09
11415;BME280;5763;42.714;23.244;2022-08-03T01:18:31;94572.00;;;21.10;58.06
11415;BME280;5763;42.714;23.244;2022-08-03T01:21:06;94599.25;;;21.17;58.71
11415;BME280;5763;42.714;23.244;2022-08-03T01:23:59;94600.53;;;21.16;58.77
11415;BME280;5763;42.714;23.244;2022-08-03T01:26:51;94598.75;;;21.18;58.87
11415;BME280;5763;42.714;23.244;2022-08-03T01:29:49;94600.06;;;21.12;59.21
11415;BME280;5763;42.714;23.244;2022-08-03T01:32:19;94602.91;;;21.06;59.35
11415;BME280;5763;42.714;23.244;2022-08-03T01:34:51;94600.63;;;21.05;59.32
11415;BME280;5763;42.714;23.244;2022-08-03T01:37:27;94598.88;;;21.02;59.60
11415;BME280;5763;42.714;23.244;2022-08-03T01:39:58;94602.72;;;20.99;59.88
11415;BME280;5763;42.714;23.244;2022-08-03T01:42:29;94610.75;;;21.08;59.66
11415;BME280;5763;42.714;23.244;2022-08-03T01:44:59;94599.94;;;20.99;59.81
11415;BME280;5763;42.714;23.244;2022-08-03T01:47:28;94607.34;;;20.91;60.32
11415;BME280;5763;42.714;23.244;2022-08-03T01:49:56;94604.81;;;20.93;60.09
11415;BME280;5763;42.714;23.244;2022-08-03T01:52:24;94608.34;;;20.88;60.72
11415;BME280;5763;42.714;23.244;2022-08-03T01:54:52;94605.31;;;20.86;60.71
11415;BME280;5763;42.714;23.244;2022-08-03T01:57:21;94601.28;;;20.87;60.60
11415;BME280;5763;42.714;23.244;2022-08-03T01:59:49;94605.31;;;20.86;60.77
11415;BME280;5763;42.714;23.244;2022-08-03T02:02:19;94603.06;;;20.84;60.67
11415;BME280;5763;42.714;23.244;2022-08-03T02:04:47;94615.22;;;20.81;61.05
11415;BME280;5763;42.714;23.244;2022-08-03T02:07:15;94606.38;;;20.83;61.10
11415;BME280;5763;42.714;23.244;2022-08-03T02:09:44;94616.53;;;20.75;61.14
11415;BME280;5763;42.714;23.244;2022-08-03T02:12:13;94600.41;;;20.68;61.06
11415;BME280;5763;42.714;23.244;2022-08-03T02:14:42;94611.78;;;20.70;61.45
11415;BME280;5763;42.714;23.244;2022-08-03T02:17:10;94609.00;;;20.70;61.33
11415;BME280;5763;42.714;23.244;2022-08-03T02:19:39;94594.88;;;20.68;61.47
11415;BME280;5763;42.714;23.244;2022-08-03T02:22:09;94604.72;;;20.63;61.50
11415;BME280;5763;42.714;23.244;2022-08-03T02:24:37;94611.06;;;20.64;60.20
11415;BME280;5763;42.714;23.244;2022-08-03T02:27:09;94607.00;;;20.65;59.35
11415;BME280;5763;42.714;23.244;2022-08-03T02:29:40;94601.44;;;20.65;58.97
11415;BME280;5763;42.714;23.244;2022-08-03T02:32:10;94604.31;;;20.54;59.76
11415;BME280;5763;42.714;23.244;2022-08-03T02:34:39;94602.50;;;20.62;59.58
11415;BME280;5763;42.714;23.244;2022-08-03T02:37:09;94604.28;;;20.59;59.17
11415;BME280;5763;42.714;23.244;2022-08-03T02:39:38;94599.44;;;20.65;59.01
11415;BME280;5763;42.714;23.244;2022-08-03T02:42:08;94588.91;;;20.53;59.44
11415;BME280;5763;42.714;23.244;2022-08-03T02:44:36;94587.41;;;20.52;59.39
11415;BME280;5763;42.714;23.244;2022-08-03T02:47:07;94588.72;;;20.45;59.81
11415;BME280;5763;42.714;23.244;2022-08-03T02:49:36;94590.91;;;20.52;60.07
11415;BME280;5763;42.714;23.244;2022-08-03T02:52:08;94586.91;;;20.48;60.67
11415;BME280;5763;42.714;23.244;2022-08-03T02:54:36;94589.19;;;20.49;60.00
11415;BME280;5763;42.714;23.244;2022-08-03T02:57:05;94589.72;;;20.42;59.61
11415;BME280;5763;42.714;23.244;2022-08-03T02:59:33;94600.84;;;20.42;59.52
11415;BME280;5763;42.714;23.244;2022-08-03T03:02:01;94595.75;;;20.52;59.32
11415;BME280;5763;42.714;23.244;2022-08-03T03:04:29;94607.38;;;20.50;60.07
11415;BME280;5763;42.714;23.244;2022-08-03T03:06:56;94608.13;;;20.51;59.99
11415;BME280;5763;42.714;23.244;2022-08-03T03:09:25;94611.16;;;20.53;60.18
11415;BME280;5763;42.714;23.244;2022-08-03T03:11:52;94615.22;;;20.46;60.65
11415;BME280;5763;42.714;23.244;2022-08-03T03:14:20;94614.94;;;20.50;60.85
11415;BME280;5763;42.714;23.244;2022-08-03T03:16:47;94616.72;;;20.47;60.92
11415;BME280;5763;42.714;23.244;2022-08-03T03:19:15;94614.94;;;20.50;60.78
11415;BME280;5763;42.714;23.244;2022-08-03T03:21:44;94619.31;;;20.40;61.30
11415;BME280;5763;42.714;23.244;2022-08-03T03:24:12;94627.41;;;20.38;61.44
11415;BME280;5763;42.714;23.244;2022-08-03T03:26:41;94624.88;;;20.40;61.48
11415;BME280;5763;42.714;23.244;2022-08-03T03:29:08;94627.41;;;20.43;61.68
11415;BME280;5763;42.714;23.244;2022-08-03T03:31:35;94631.72;;;20.39;61.82
11415;BME280;5763;42.714;23.244;2022-08-03T03:34:02;94629.97;;;20.36;61.95
11415;BME280;5763;42.714;23.244;2022-08-03T03:36:29;94630.22;;;20.32;62.28
11415;BME280;5763;42.714;23.244;2022-08-03T03:38:56;94633.53;;;20.31;62.48
11415;BME280;5763;42.714;23.244;2022-08-03T03:41:23;94631.28;;;20.24;62.44
11415;BME280;5763;42.714;23.244;2022-08-03T03:43:51;94647.72;;;20.22;62.15
11415;BME280;5763;42.714;23.244;2022-08-03T03:46:18;94646.72;;;20.19;62.22
11415;BME280;5763;42.714;23.244;2022-08-03T03:48:45;94653.31;;;20.16;62.49
11415;BME280;5763;42.714;23.244;2022-08-03T03:51:12;94649.28;;;20.12;62.78
11415;BME280;5763;42.714;23.244;2022-08-03T03:53:39;94651.81;;;20.10;63.37
11415;BME280;5763;42.714;23.244;2022-08-03T03:56:06;94647.75;;;20.16;62.77
11415;BME280;5763;42.714;23.244;2022-08-03T03:58:33;94656.38;;;20.07;62.44
11415;BME280;5763;42.714;23.244;2022-08-03T04:01:01;94649.81;;;20.05;62.27
11415;BME280;5763;42.714;23.244;2022-08-03T04:03:28;94645.50;;;20.04;62.61
11415;BME280;5763;42.714;23.244;2022-08-03T04:05:55;94647.53;;;20.09;62.49
11415;BME280;5763;42.714;23.244;2022-08-03T04:08:39;94651.59;;;20.08;62.83
11415;BME280;5763;42.714;23.244;2022-08-03T04:11:26;94643.72;;;20.06;63.23
11415;BME280;5763;42.714;23.244;2022-08-03T04:13:56;94644.50;;;20.07;63.42
11415;BME280;5763;42.714;23.244;2022-08-03T04:16:30;94650.56;;;20.11;63.32
11415;BME280;5763;42.714;23.244;2022-08-03T04:19:01;94644.22;;;20.16;63.62
11415;BME280;5763;42.714;23.244;2022-08-03T04:21:31;94642.19;;;20.22;63.68
11415;BME280;5763;42.714;23.244;2022-08-03T04:24:03;94641.41;;;20.21;63.86
11415;BME280;5763;42.714;23.244;2022-08-03T04:26:35;94641.69;;;20.18;64.14
11415;BME280;5763;42.714;23.244;2022-08-03T04:29:03;94649.25;;;20.23;64.03
11415;BME280;5763;42.714;23.244;2022-08-03T04:31:32;94645.41;;;20.31;63.87
11415;BME280;5763;42.714;23.244;2022-08-03T04:34:01;94641.09;;;20.36;63.87
11415;BME280;5763;42.714;23.244;2022-08-03T04:36:31;94646.09;;;20.43;63.92
11415;BME280;5763;42.714;23.244;2022-08-03T04:39:02;94654.66;;;20.45;64.16
11415;BME280;5763;42.714;23.244;2022-08-03T04:41:30;94649.78;;;20.56;63.88
11415;BME280;5763;42.714;23.244;2022-08-03T04:43:58;94649.22;;;20.63;63.82
11415;BME280;5763;42.714;23.244;2022-08-03T04:46:28;94652.00;;;20.69;63.44
11415;BME280;5763;42.714;23.244;2022-08-03T04:48:58;94653.75;;;20.72;62.96
11415;BME280;5763;42.714;23.244;2022-08-03T04:51:26;94660.50;;;20.82;63.22
11415;BME280;5763;42.714;23.244;2022-08-03T04:53:53;94670.81;;;20.92;62.97
11415;BME280;5763;42.714;23.244;2022-08-03T04:56:20;94659.69;;;20.92;62.87
11415;BME280;5763;42.714;23.244;2022-08-03T04:58:47;94675.88;;;20.88;62.19
11415;BME280;5763;42.714;23.244;2022-08-03T05:01:14;94666.31;;;20.89;61.78
11415;BME280;5763;42.714;23.244;2022-08-03T05:03:41;94672.56;;;20.95;61.29
11415;BME280;5763;42.714;23.244;2022-08-03T05:06:09;94676.16;;;20.85;61.94
11415;BME280;5763;42.714;23.244;2022-08-03T05:08:36;94679.91;;;20.87;61.81
11415;BME280;5763;42.714;23.244;2022-08-03T05:11:03;94675.34;;;20.95;61.97
11415;BME280;5763;42.714;23.244;2022-08-03T05:13:30;94678.56;;;21.05;61.48
11415;BME280;5763;42.714;23.244;2022-08-03T05:15:57;94682.81;;;21.11;60.99
11415;BME280;5763;42.714;23.244;2022-08-03T05:18:24;94678.06;;;21.01;60.95
11415;BME280;5763;42.714;23.244;2022-08-03T05:20:50;94688.47;;;21.00;60.90
11415;BME280;5763;42.714;23.244;2022-08-03T05:23:18;94683.44;;;20.93;60.59
11415;BME280;5763;42.714;23.244;2022-08-03T05:25:45;94680.44;;;20.91;60.50
11415;BME280;5763;42.714;23.244;2022-08-03T05:28:12;94695.75;;;21.03;60.72
11415;BME280;5763;42.714;23.244;2022-08-03T05:30:39;94698.25;;;21.07;60.10
11415;BME280;5763;42.714;23.244;2022-08-03T05:33:06;94695.22;;;21.10;60.73
11415;BME280;5763;42.714;23.244;2022-08-03T05:35:33;94703.81;;;21.12;61.32
11415;BME280;5763;42.714;23.244;2022-08-03T05:38:01;94701.00;;;21.18;61.29
11415;BME280;5763;42.714;23.244;2022-08-03T05:40:29;94698.66;;;21.22;61.32
11415;BME280;5763;42.714;23.244;2022-08-03T05:42:56;94700.22;;;21.17;62.56
11415;BME280;5763;42.714;23.244;2022-08-03T05:45:23;94707.78;;;21.22;61.71
11415;BME280;5763;42.714;23.244;2022-08-03T05:47:50;94701.13;;;21.31;61.66
11415;BME280;5763;42.714;23.244;2022-08-03T05:50:18;94700.09;;;21.34;61.99
11415;BME280;5763;42.714;23.244;2022-08-03T05:52:45;94702.06;;;21.39;62.11
11415;BME280;5763;42.714;23.244;2022-08-03T05:55:12;94709.56;;;21.49;62.46
11415;BME280;5763;42.714;23.244;2022-08-03T05:57:40;94706.72;;;21.55;61.86
11415;BME280;5763;42.714;23.244;2022-08-03T06:00:09;94711.78;;;21.56;61.98
11415;BME280;5763;42.714;23.244;2022-08-03T06:02:37;94706.41;;;21.64;61.59
11415;BME280;5763;42.714;23.244;2022-08-03T06:05:05;94709.91;;;21.64;60.71
11415;BME280;5763;42.714;23.244;2022-08-03T06:07:31;94717.97;;;21.68;60.92
11415;BME280;5763;42.714;23.244;2022-08-03T06:09:59;94713.69;;;21.72;60.79
11415;BME280;5763;42.714;23.244;2022-08-03T06:12:27;94716.19;;;21.76;60.82
11415;BME280;5763;42.714;23.244;2022-08-03T06:14:55;94714.91;;;21.77;60.29
11415;BME280;5763;42.714;23.244;2022-08-03T06:17:22;94715.53;;;21.88;59.46
11415;BME280;5763;42.714;23.244;2022-08-03T06:19:51;94717.03;;;21.89;59.32
11415;BME280;5763;42.714;23.244;2022-08-03T06:22:17;94717.97;;;21.97;59.09
11415;BME280;5763;42.714;23.244;2022-08-03T06:24:44;94704.78;;;21.98;59.21
11415;BME280;5763;42.714;23.244;2022-08-03T06:27:11;94716.09;;;22.05;59.56
11415;BME280;5763;42.714;23.244;2022-08-03T06:29:38;94724.41;;;22.11;59.75
11415;BME280;5763;42.714;23.244;2022-08-03T06:32:06;94717.50;;;22.17;59.39
11415;BME280;5763;42.714;23.244;2022-08-03T06:34:33;94716.13;;;22.24;58.79
11415;BME280;5763;42.714;23.244;2022-08-03T06:36:59;94720.59;;;22.32;58.18
11415;BME280;5763;42.714;23.244;2022-08-03T06:39:26;94718.50;;;22.38;57.63
11415;BME280;5763;42.714;23.244;2022-08-03T06:41:53;94712.38;;;22.45;57.48
11415;BME280;5763;42.714;23.244;2022-08-03T06:44:20;94718.78;;;22.59;57.22
11415;BME280;5763;42.714;23.244;2022-08-03T06:46:47;94716.59;;;22.70;55.73
11415;BME280;5763;42.714;23.244;2022-08-03T06:49:15;94712.97;;;22.75;55.54
11415;BME280;5763;42.714;23.244;2022-08-03T06:51:42;94706.31;;;22.78;55.46
11415;BME280;5763;42.714;23.244;2022-08-03T06:54:09;94718.41;;;22.86;55.36
11415;BME280;5763;42.714;23.244;2022-08-03T06:56:36;94714.00;;;22.91;54.52
11415;BME280;5763;42.714;23.244;2022-08-03T06:59:03;94716.72;;;22.96;54.23
11415;BME280;5763;42.714;23.244;2022-08-03T07:01:30;94714.97;;;23.12;53.92
11415;BME280;5763;42.714;23.244;2022-08-03T07:03:57;94714.41;;;23.19;53.50
11415;BME280;5763;42.714;23.244;2022-08-03T07:06:26;94708.28;;;23.20;54.02
11415;BME280;5763;42.714;23.244;2022-08-03T07:08:53;94709.69;;;23.27;54.38
11415;BME280;5763;42.714;23.244;2022-08-03T07:11:20;94709.91;;;23.29;54.35
11415;BME280;5763;42.714;23.244;2022-08-03T07:13:47;94720.78;;;23.32;54.05
11415;BME280;5763;42.714;23.244;2022-08-03T07:16:14;94712.53;;;23.40;53.69
11415;BME280;5763;42.714;23.244;2022-08-03T07:18:41;94713.94;;;23.46;52.83
11415;BME280;5763;42.714;23.244;2022-08-03T07:21:07;94723.31;;;23.49;52.98
11415;BME280;5763;42.714;23.244;2022-08-03T07:23:36;94720.09;;;23.58;53.50
11415;BME280;5763;42.714;23.244;2022-08-03T07:26:03;94716.16;;;23.66;53.01
11415;BME280;5763;42.714;23.244;2022-08-03T07:28:30;94712.91;;;23.75;52.40
11415;BME280;5763;42.714;23.244;2022-08-03T07:30:57;94714.84;;;23.80;52.76
11415;BME280;5763;42.714;23.244;2022-08-03T07:33:25;94717.47;;;23.91;53.08
11415;BME280;5763;42.714;23.244;2022-08-03T07:35:51;94717.06;;;24.00;53.00
11415;BME280;5763;42.714;23.244;2022-08-03T07:38:18;94716.44;;;24.07;52.81
11415;BME280;5763;42.714;23.244;2022-08-03T07:40:46;94715.69;;;24.20;52.54
11415;BME280;5763;42.714;23.244;2022-08-03T07:43:13;94711.91;;;24.30;52.24
11415;BME280;5763;42.714;23.244;2022-08-03T07:45:40;94703.63;;;24.38;51.38
11415;BME280;5763;42.714;23.244;2022-08-03T07:48:07;94709.22;;;24.51;51.71
11415;BME280;5763;42.714;23.244;2022-08-03T07:50:33;94707.69;;;24.50;49.26
11415;BME280;5763;42.714;23.244;2022-08-03T07:53:00;94718.25;;;24.57;49.03
11415;BME280;5763;42.714;23.244;2022-08-03T07:55:27;94715.03;;;24.66;48.23
11415;BME280;5763;42.714;23.244;2022-08-03T07:58:04;94707.34;;;24.79;47.26
11415;BME280;5763;42.714;23.244;2022-08-03T08:00:32;94722.94;;;24.88;47.75
11415;BME280;5763;42.714;23.244;2022-08-03T08:02:59;94721.31;;;24.92;48.23
11415;BME280;5763;42.714;23.244;2022-08-03T08:05:27;94725.91;;;25.03;48.99
11415;BME280;5763;42.714;23.244;2022-08-03T08:07:54;94718.13;;;25.09;48.38
11415;BME280;5763;42.714;23.244;2022-08-03T08:10:21;94718.41;;;25.18;47.07
11415;BME280;5763;42.714;23.244;2022-08-03T08:12:48;94722.72;;;25.32;46.76
11415;BME280;5763;42.714;23.244;2022-08-03T08:15:16;94725.78;;;25.42;46.38
11415;BME280;5763;42.714;23.244;2022-08-03T08:17:44;94727.69;;;25.47;46.55
11415;BME280;5763;42.714;23.244;2022-08-03T08:20:15;94726.16;;;25.59;47.37
11415;BME280;5763;42.714;23.244;2022-08-03T08:22:42;94723.41;;;25.66;47.62
11415;BME280;5763;42.714;23.244;2022-08-03T08:25:09;94720.66;;;25.74;46.01
11415;BME280;5763;42.714;23.244;2022-08-03T08:27:40;94716.63;;;25.82;46.41
11415;BME280;5763;42.714;23.244;2022-08-03T08:30:08;94716.16;;;25.91;45.47
11415;BME280;5763;42.714;23.244;2022-08-03T08:32:36;94713.41;;;25.99;45.25
11415;BME280;5763;42.714;23.244;2022-08-03T08:35:04;94716.31;;;26.14;45.48
11415;BME280;5763;42.714;23.244;2022-08-03T08:37:32;94719.03;;;26.27;45.79
11415;BME280;5763;42.714;23.244;2022-08-03T08:39:59;94722.22;;;26.31;44.79
11415;BME280;5763;42.714;23.244;2022-08-03T08:42:25;94718.56;;;26.43;44.40
11415;BME280;5763;42.714;23.244;2022-08-03T08:44:53;94713.38;;;26.55;44.24
11415;BME280;5763;42.714;23.244;2022-08-03T08:47:22;94705.63;;;26.68;44.56
11415;BME280;5763;42.714;23.244;2022-08-03T08:49:52;94712.03;;;26.84;44.01
11415;BME280;5763;42.714;23.244;2022-08-03T08:52:25;94715.09;;;27.01;43.44
11415;BME280;5763;42.714;23.244;2022-08-03T08:54:55;94707.34;;;27.22;42.05
11415;BME280;5763;42.714;23.244;2022-08-03T08:57:30;94705.13;;;27.43;41.03
11415;BME280;5763;42.714;23.244;2022-08-03T08:59:59;94697.25;;;27.49;41.48
11415;BME280;5763;42.714;23.244;2022-08-03T09:02:29;94701.19;;;27.46;40.57
11415;BME280;5763;42.714;23.244;2022-08-03T09:04:58;94698.22;;;27.59;40.26
11415;BME280;5763;42.714;23.244;2022-08-03T09:07:27;94706.66;;;27.74;38.09
11415;BME280;5763;42.714;23.244;2022-08-03T09:09:54;94690.16;;;27.93;38.79
11415;BME280;5763;42.714;23.244;2022-08-03T09:12:21;94696.38;;;27.99;38.50
11415;BME280;5763;42.714;23.244;2022-08-03T09:14:47;94698.78;;;28.10;37.25
11415;BME280;5763;42.714;23.244;2022-08-03T09:17:15;94694.09;;;28.20;36.95
11415;BME280;5763;42.714;23.244;2022-08-03T09:19:42;94685.81;;;28.14;36.70
11415;BME280;5763;42.714;23.244;2022-08-03T09:22:12;94699.69;;;28.35;36.31
11415;BME280;5763;42.714;23.244;2022-08-03T09:24:54;94703.06;;;28.26;36.42
11415;BME280;5763;42.714;23.244;2022-08-03T09:27:22;94692.72;;;28.36;36.51
11415;BME280;5763;42.714;23.244;2022-08-03T09:30:00;94687.09;;;28.51;35.74
11415;BME280;5763;42.714;23.244;2022-08-03T09:32:36;94684.97;;;28.66;35.52
11415;BME280;5763;42.714;23.244;2022-08-03T09:35:03;94691.66;;;28.86;35.76
11415;BME280;5763;42.714;23.244;2022-08-03T09:37:31;94685.06;;;28.98;35.73
11415;BME280;5763;42.714;23.244;2022-08-03T09:39:58;94697.38;;;29.18;34.12
11415;BME280;5763;42.714;23.244;2022-08-03T09:42:25;94690.56;;;29.21;33.70
11415;BME280;5763;42.714;23.244;2022-08-03T09:44:53;94688.94;;;29.10;33.95
11415;BME280;5763;42.714;23.244;2022-08-03T09:47:27;94695.19;;;29.01;34.25
11415;BME280;5763;42.714;23.244;2022-08-03T09:49:56;94692.16;;;29.07;34.22
11415;BME280;5763;42.714;23.244;2022-08-03T09:52:29;94687.50;;;29.34;34.57
11415;BME280;5763;42.714;23.244;2022-08-03T09:54:59;94689.63;;;29.58;34.84
11415;BME280;5763;42.714;23.244;2022-08-03T09:57:27;94682.03;;;29.68;34.45
11415;BME280;5763;42.714;23.244;2022-08-03T10:00:06;94685.25;;;29.89;34.55
11415;BME280;5763;42.714;23.244;2022-08-03T10:02:34;94679.97;;;30.10;33.69
11415;BME280;5763;42.714;23.244;2022-08-03T10:05:02;94678.53;;;30.26;32.63
11415;BME280;5763;42.714;23.244;2022-08-03T10:07:29;94682.78;;;30.10;33.12
11415;BME280;5763;42.714;23.244;2022-08-03T10:09:59;94680.78;;;30.27;33.27
11415;BME280;5763;42.714;23.244;2022-08-03T10:12:27;94669.97;;;30.50;32.93
11415;BME280;5763;42.714;23.244;2022-08-03T10:14:54;94669.81;;;30.82;31.86
11415;BME280;5763;42.714;23.244;2022-08-03T10:17:22;94670.88;;;31.04;31.46
11415;BME280;5763;42.714;23.244;2022-08-03T10:19:49;94665.69;;;31.27;31.47
11415;BME280;5763;42.714;23.244;2022-08-03T10:22:18;94655.66;;;31.43;31.54
11415;BME280;5763;42.714;23.244;2022-08-03T10:24:52;94659.94;;;31.17;31.29
11415;BME280;5763;42.714;23.244;2022-08-03T10:27:22;94665.31;;;30.96;32.20
11415;BME280;5763;42.714;23.244;2022-08-03T10:29:51;94663.75;;;30.69;32.97
11415;BME280;5763;42.714;23.244;2022-08-03T10:32:22;94659.94;;;30.74;33.42
11415;BME280;5763;42.714;23.244;2022-08-03T10:34:55;94662.22;;;31.02;33.34
11415;BME280;5763;42.714;23.244;2022-08-03T10:37:29;94660.06;;;30.93;33.72
11415;BME280;5763;42.714;23.244;2022-08-03T10:39:59;94662.28;;;30.68;32.94
11415;BME280;5763;42.714;23.244;2022-08-03T10:42:28;94660.25;;;30.44;33.88
11415;BME280;5763;42.714;23.244;2022-08-03T10:45:03;94656.69;;;30.43;33.13
11415;BME280;5763;42.714;23.244;2022-08-03T10:47:32;94661.13;;;30.71;32.39
11415;BME280;5763;42.714;23.244;2022-08-03T10:50:00;94661.03;;;31.05;32.98
11415;BME280;5763;42.714;23.244;2022-08-03T10:52:27;94650.59;;;31.51;32.20
11415;BME280;5763;42.714;23.244;2022-08-03T10:54:53;94662.72;;;31.61;31.97
11415;BME280;5763;42.714;23.244;2022-08-03T10:57:47;94653.63;;;31.26;31.92
11415;BME280;5763;42.714;23.244;2022-08-03T11:00:14;94654.91;;;30.99;32.05
11415;BME280;5763;42.714;23.244;2022-08-03T11:03:04;94639.28;;;30.98;32.36
11415;BME280;5763;42.714;23.244;2022-08-03T11:05:34;94654.84;;;31.16;31.94
11415;BME280;5763;42.714;23.244;2022-08-03T11:08:28;94651.63;;;31.46;31.66
11415;BME280;5763;42.714;23.244;2022-08-03T11:10:57;94647.97;;;31.89;31.07
11415;BME280;5763;42.714;23.244;2022-08-03T11:13:29;94638.78;;;32.17;30.49
11415;BME280;5763;42.714;23.244;2022-08-03T11:16:01;94635.28;;;32.45;30.55
11415;BME280;5763;42.714;23.244;2022-08-03T11:18:35;94631.53;;;32.61;30.20
11415;BME280;5763;42.714;23.244;2022-08-03T11:21:05;94636.03;;;32.93;29.61
11415;BME280;5763;42.714;23.244;2022-08-03T11:23:43;94634.66;;;33.13;28.83
11415;BME280;5763;42.714;23.244;2022-08-03T11:26:11;94632.22;;;33.38;28.79
11415;BME280;5763;42.714;23.244;2022-08-03T11:28:40;94632.66;;;33.44;28.38
11415;BME280;5763;42.714;23.244;2022-08-03T11:34:20;94627.25;;;33.48;27.92
11415;BME280;5763;42.714;23.244;2022-08-03T11:37:18;94631.41;;;33.56;27.98
11415;BME280;5763;42.714;23.244;2022-08-03T11:39:51;94616.44;;;33.56;27.79
11415;BME280;5763;42.714;23.244;2022-08-03T11:42:40;94619.41;;;33.67;27.46
11415;BME280;5763;42.714;23.244;2022-08-03T11:45:10;94620.41;;;33.81;28.09
11415;BME280;5763;42.714;23.244;2022-08-03T11:47:38;94620.03;;;33.96;27.02
11415;BME280;5763;42.714;23.244;2022-08-03T11:50:06;94621.22;;;34.03;27.48
11415;BME280;5763;42.714;23.244;2022-08-03T11:52:34;94619.50;;;34.09;27.18
11415;BME280;5763;42.714;23.244;2022-08-03T11:55:01;94621.06;;;34.22;27.13
11415;BME280;5763;42.714;23.244;2022-08-03T11:57:28;94614.31;;;34.27;26.91
11415;BME280;5763;42.714;23.244;2022-08-03T11:59:55;94626.78;;;34.43;27.45
11415;BME280;5763;42.714;23.244;2022-08-03T12:02:24;94621.06;;;34.64;27.58
11415;BME280;5763;42.714;23.244;2022-08-03T12:04:51;94619.06;;;34.55;27.76
11415;BME280;5763;42.714;23.244;2022-08-03T12:07:19;94622.28;;;33.98;27.60
11415;BME280;5763;42.714;23.244;2022-08-03T12:10:06;94619.56;;;33.29;28.72
11415;BME280;5763;42.714;23.244;2022-08-03T12:12:34;94621.53;;;32.60;29.38
11415;BME280;5763;42.714;23.244;2022-08-03T12:15:02;94625.22;;;32.25;30.11
11415;BME280;5763;42.714;23.244;2022-08-03T12:17:33;94632.47;;;31.54;29.11
11415;BME280;5763;42.714;23.244;2022-08-03T12:20:00;94626.06;;;31.00;29.68
11415;BME280;5763;42.714;23.244;2022-08-03T12:22:31;94621.94;;;30.50;31.03
11415;BME280;5763;42.714;23.244;2022-08-03T12:25:01;94612.72;;;30.16;31.60
11415;BME280;5763;42.714;23.244;2022-08-03T12:27:28;94609.25;;;29.83;32.08
11415;BME280;5763;42.714;23.244;2022-08-03T12:29:55;94613.25;;;29.56;32.77
11415;BME280;5763;42.714;23.244;2022-08-03T12:32:23;94623.50;;;29.44;33.13
11415;BME280;5763;42.714;23.244;2022-08-03T12:34:51;94610.38;;;29.39;33.78
11415;BME280;5763;42.714;23.244;2022-08-03T12:37:19;94605.31;;;29.37;33.98
11415;BME280;5763;42.714;23.244;2022-08-03T12:39:49;94607.59;;;29.31;33.64
11415;BME280;5763;42.714;23.244;2022-08-03T12:42:16;94593.16;;;29.27;33.75
11415;BME280;5763;42.714;23.244;2022-08-03T12:44:43;94602.59;;;29.22;34.58
11415;BME280;5763;42.714;23.244;2022-08-03T12:47:13;94598.69;;;29.18;34.66
11415;BME280;5763;42.714;23.244;2022-08-03T12:49:47;94595.00;;;29.08;35.06
11415;BME280;5763;42.714;23.244;2022-08-03T12:52:16;94597.81;;;29.08;35.26
11415;BME280;5763;42.714;23.244;2022-08-03T12:54:53;94595.41;;;29.04;35.90
11415;BME280;5763;42.714;23.244;2022-08-03T12:57:20;94600.13;;;29.02;35.80
11415;BME280;5763;42.714;23.244;2022-08-03T12:59:46;94594.13;;;28.98;35.92
11415;BME280;5763;42.714;23.244;2022-08-03T13:02:15;94588.34;;;28.88;35.58
11415;BME280;5763;42.714;23.244;2022-08-03T13:04:42;94587.56;;;28.88;36.24
11415;BME280;5763;42.714;23.244;2022-08-03T13:07:10;94580.84;;;28.83;36.21
11415;BME280;5763;42.714;23.244;2022-08-03T13:09:43;94580.69;;;28.74;36.69
11415;BME280;5763;42.714;23.244;2022-08-03T13:12:12;94573.00;;;28.74;37.05
11415;BME280;5763;42.714;23.244;2022-08-03T13:14:39;94572.47;;;28.68;37.57